Time;durP1;ratioP1;P1;durP2;ratioP2;P2;SDS_P1;SDS_P2;PMS_P1;PMS_P2;Temp;Humidity;BMP_temperature;BMP_pressure;BME280_temperature;BME280_humidity;BME280_pressure;Samples;Min_cycle;Max_cycle;Signal;HPM_P1;HPM_P2
2022/05/08 04:01:51;;;;;;;12.07;9.10;;;10.90;99.90;;;-143.14;100.00;56521.75;5312002;23;21051;-76
2022/05/08 04:04:18;;;;;;;11.10;10.00;;;10.90;99.90;;;-143.14;100.00;56521.75;4949448;29;20497;-76
2022/05/08 04:06:45;;;;;;;10.07;9.07;;;10.90;99.90;;;-143.14;100.00;56521.75;4950163;29;20540;-76
2022/05/08 04:09:12;;;;;;;11.10;9.90;;;10.90;99.90;;;-143.14;100.00;56521.75;4950115;29;20471;-76
2022/05/08 04:11:39;;;;;;;11.00;9.90;;;10.90;99.90;;;-143.14;100.00;56521.75;4949589;28;20564;-76
2022/05/08 04:14:06;;;;;;;12.43;11.13;;;10.90;99.90;;;-143.14;100.00;56521.75;4948449;29;20509;-76
2022/05/08 04:16:33;;;;;;;12.47;10.00;;;10.80;99.90;;;-143.14;100.00;56521.75;4950139;29;20452;-76
2022/05/08 04:19:01;;;;;;;13.70;10.50;;;10.80;99.90;;;-143.14;100.00;56521.75;4949868;29;20468;-76
2022/05/08 04:21:28;;;;;;;12.10;10.17;;;10.80;99.90;;;-143.14;100.00;56521.75;4949582;28;20580;-76
2022/05/08 04:26:40;;;;;;;13.40;10.70;;;10.70;99.90;;;-143.14;100.00;56521.75;4949690;29;20441;-76
2022/05/08 04:29:07;;;;;;;12.10;10.33;;;10.70;99.90;;;-143.14;100.00;56521.75;4949339;29;20536;-76
2022/05/08 04:31:34;;;;;;;13.07;10.87;;;10.80;99.90;;;-143.14;100.00;56521.75;4949285;28;20508;-76
2022/05/08 04:34:03;;;;;;;11.47;10.37;;;10.70;99.90;;;-143.14;100.00;56521.75;4948870;29;20842;-76
2022/05/08 04:36:30;;;;;;;12.63;11.10;;;10.70;99.90;;;-143.14;100.00;56521.75;4949522;28;20946;-76
2022/05/08 04:38:58;;;;;;;11.87;10.77;;;10.70;99.90;;;-143.14;100.00;56521.75;4949092;28;20453;-76
2022/05/08 04:41:25;;;;;;;12.87;11.50;;;10.70;99.90;;;-143.14;100.00;56521.75;4949013;28;20568;-76
2022/05/08 04:43:57;;;;;;;16.03;10.80;;;10.70;99.90;;;-143.14;100.00;56521.75;4948710;29;20497;-76
2022/05/08 04:46:24;;;;;;;13.70;11.70;;;10.60;99.90;;;-143.14;100.00;56521.75;4949432;29;20552;-76
2022/05/08 04:48:51;;;;;;;14.13;12.20;;;10.60;99.90;;;-143.14;100.00;56521.75;4949308;29;20453;-76
2022/05/08 04:51:19;;;;;;;13.23;10.47;;;10.50;99.90;;;-143.14;100.00;56521.75;4949072;28;20858;-76
2022/05/08 04:53:46;;;;;;;15.10;12.43;;;10.50;99.90;;;-143.14;100.00;56521.75;4948694;28;20457;-76
2022/05/08 04:56:13;;;;;;;13.43;12.03;;;10.50;99.90;;;-143.14;100.00;56521.75;4949237;29;20461;-76
2022/05/08 04:58:40;;;;;;;13.10;11.47;;;10.60;99.90;;;-143.14;100.00;56521.75;4949108;29;20840;-76
2022/05/08 05:01:08;;;;;;;14.40;12.87;;;10.60;99.90;;;-143.14;100.00;56521.75;4949316;28;20863;-75
2022/05/08 05:03:35;;;;;;;14.73;13.03;;;10.60;99.90;;;-143.14;100.00;56521.75;4948418;29;20501;-74
2022/05/08 05:06:02;;;;;;;15.63;12.77;;;10.50;99.90;;;-143.14;100.00;56521.75;4948933;29;20469;-74
2022/05/08 05:08:30;;;;;;;14.73;13.23;;;10.50;99.90;;;-143.14;100.00;56521.75;4948759;29;20980;-74
2022/05/08 05:10:57;;;;;;;14.77;13.13;;;10.50;99.90;;;-143.14;100.00;56521.75;4949574;28;20477;-74
2022/05/08 05:13:25;;;;;;;16.67;13.57;;;10.60;99.90;;;-143.14;100.00;56521.75;4948538;29;20465;-74
2022/05/08 05:15:52;;;;;;;17.37;12.53;;;10.60;99.90;;;-143.14;100.00;56521.75;4948938;29;20457;-74
2022/05/08 05:18:19;;;;;;;13.87;12.03;;;10.70;99.90;;;-143.14;100.00;56521.75;4948655;29;20458;-75
2022/05/08 05:20:46;;;;;;;12.80;11.50;;;10.70;99.90;;;-143.14;100.00;56521.75;4948905;28;20481;-75
2022/05/08 05:23:13;;;;;;;12.50;11.03;;;10.80;99.90;;;-143.14;100.00;56521.75;4948108;29;20457;-74
2022/05/08 05:25:42;;;;;;;11.97;10.77;;;10.70;99.90;;;-143.14;100.00;56521.75;4948478;29;20464;-75
2022/05/08 05:28:09;;;;;;;11.10;10.03;;;10.70;99.90;;;-143.14;100.00;56521.75;4948430;29;21132;-74
2022/05/08 05:30:36;;;;;;;13.10;11.77;;;10.80;99.90;;;-143.14;100.00;56521.75;4950235;28;20477;-74
2022/05/08 05:33:03;;;;;;;14.50;11.30;;;10.80;99.90;;;-143.14;100.00;56521.75;4949491;29;20954;-74
2022/05/08 05:35:30;;;;;;;14.60;12.30;;;10.80;99.90;;;-143.14;100.00;56521.75;4949635;29;20449;-76
2022/05/08 05:37:57;;;;;;;13.47;12.13;;;10.70;99.90;;;-143.14;100.00;56521.75;4949680;29;20454;-74
2022/05/08 05:40:24;;;;;;;13.63;12.23;;;10.70;99.90;;;-143.14;100.00;56521.75;4949694;28;20476;-77
2022/05/08 05:42:53;;;;;;;13.07;11.70;;;10.80;99.90;;;-143.14;100.00;56521.75;4948914;29;20463;-73
2022/05/08 05:45:20;;;;;;;13.27;11.43;;;10.80;99.90;;;-143.14;100.00;56521.75;4949268;29;20508;-76
2022/05/08 05:47:53;;;;;;;14.43;11.47;;;10.80;99.90;;;-143.14;100.00;56521.75;4949204;29;20480;-74
2022/05/08 05:50:21;;;;;;;14.50;13.00;;;10.80;99.90;;;-143.14;100.00;56521.75;4949137;28;20653;-74
2022/05/08 05:52:48;;;;;;;13.80;12.40;;;10.70;99.90;;;-143.14;100.00;56521.75;4948686;29;20441;-74
2022/05/08 05:55:16;;;;;;;15.60;13.33;;;10.70;99.90;;;-143.14;100.00;56521.75;4949184;29;20462;-75
2022/05/08 05:57:44;;;;;;;14.87;12.70;;;10.70;99.90;;;-143.14;100.00;56521.75;4949327;29;20462;-73
2022/05/08 06:00:15;;;;;;;12.77;11.53;;;10.70;99.90;;;-143.14;100.00;56521.75;4949247;29;20481;-73
2022/05/08 06:02:46;;;;;;;19.00;14.13;;;10.70;99.90;;;-143.14;100.00;56521.75;4948051;28;20850;-76
2022/05/08 06:05:14;;;;;;;14.27;12.77;;;10.70;99.90;;;-143.14;100.00;56521.75;4949100;29;20593;-75
2022/05/08 06:07:42;;;;;;;14.90;13.33;;;10.80;99.90;;;-143.14;100.00;56521.75;4949423;29;20460;-74
2022/05/08 06:10:12;;;;;;;15.67;13.10;;;10.80;99.90;;;-143.14;100.00;56521.75;4949338;29;20925;-75
2022/05/08 06:12:39;;;;;;;15.87;13.60;;;10.80;99.90;;;-143.14;100.00;56521.75;4948573;29;20549;-73
2022/05/08 06:15:08;;;;;;;14.80;13.20;;;10.90;99.90;;;-143.14;100.00;56521.75;4949038;29;20489;-73
2022/05/08 06:17:37;;;;;;;15.00;13.40;;;10.90;99.90;;;-143.14;100.00;56521.75;4949457;28;20489;-73
2022/05/08 06:20:06;;;;;;;16.30;14.60;;;11.00;99.90;;;-143.14;100.00;56521.75;4949224;29;20462;-74
2022/05/08 06:22:33;;;;;;;15.10;13.57;;;10.90;99.90;;;-143.14;100.00;56521.75;4948276;28;20481;-73
2022/05/08 06:25:01;;;;;;;15.70;14.03;;;10.80;99.90;;;-143.14;100.00;56521.75;4948761;29;20611;-68
2022/05/08 06:27:28;;;;;;;16.10;14.40;;;10.90;99.90;;;-143.14;100.00;56521.75;4948402;28;20466;-68
2022/05/08 06:29:55;;;;;;;16.97;15.27;;;10.90;99.90;;;-143.14;100.00;56521.75;4947908;29;20458;-68
2022/05/08 06:32:22;;;;;;;17.77;14.53;;;11.00;99.90;;;-143.14;100.00;56521.75;4947407;28;20564;-68
2022/05/08 06:34:50;;;;;;;16.43;14.83;;;11.00;99.90;;;-143.14;100.00;56521.75;4948396;29;20458;-68
2022/05/08 06:37:17;;;;;;;17.63;14.50;;;11.00;99.90;;;-143.14;100.00;56521.75;4947496;29;20461;-74
2022/05/08 06:39:44;;;;;;;16.73;15.03;;;11.00;99.90;;;-143.14;100.00;56521.75;4947862;29;20444;-73
2022/05/08 06:42:11;;;;;;;16.07;14.17;;;11.10;99.90;;;-143.14;100.00;56521.75;4947047;28;20488;-73
2022/05/08 06:44:39;;;;;;;17.57;15.50;;;11.10;99.90;;;-143.14;100.00;56521.75;4947630;29;20493;-73
2022/05/08 06:47:06;;;;;;;15.80;13.87;;;11.20;99.90;;;-143.14;100.00;56521.75;4948332;29;20820;-73
2022/05/08 06:49:34;;;;;;;17.37;15.37;;;11.20;99.90;;;-143.14;100.00;56521.75;4948186;29;20729;-75
2022/05/08 06:52:03;;;;;;;20.23;14.53;;;11.30;99.90;;;-143.14;100.00;56521.75;4947155;28;20484;-75
2022/05/08 06:54:30;;;;;;;15.87;14.27;;;11.30;99.90;;;-143.14;100.00;56521.75;4947787;29;20787;-75
2022/05/08 06:56:59;;;;;;;16.60;14.90;;;11.40;99.90;;;-143.14;100.00;56521.75;4948169;29;20509;-75
2022/05/08 07:02:11;;;;;;;13.73;12.40;;;11.50;99.90;;;-143.14;100.00;56521.75;4946253;28;20472;-73
2022/05/08 07:04:39;;;;;;;16.20;14.48;;;11.50;99.90;;;-143.14;100.00;56521.75;4947210;29;20451;-74
2022/05/08 07:07:07;;;;;;;16.13;14.00;;;11.60;99.90;;;-143.14;100.00;56521.75;4948154;29;20217;-75
2022/05/08 07:09:35;;;;;;;17.20;15.40;;;11.70;99.90;;;-143.14;100.00;56521.75;4949153;29;20463;-73
2022/05/08 07:12:03;;;;;;;15.73;14.13;;;11.70;99.90;;;-143.14;100.00;56521.75;4948197;28;20485;-74
2022/05/08 07:14:31;;;;;;;16.80;15.07;;;11.80;99.90;;;-143.14;100.00;56521.75;4948486;29;20485;-74
2022/05/08 07:17:00;;;;;;;19.97;15.20;;;11.80;99.90;;;-143.14;100.00;56521.75;4948645;29;20476;-74
2022/05/08 07:19:27;;;;;;;16.77;15.07;;;11.90;99.90;;;-143.14;100.00;56521.75;4948675;29;20457;-75
2022/05/08 07:21:54;;;;;;;16.93;14.70;;;11.90;99.90;;;-143.14;100.00;56521.75;4948096;28;21028;-78
2022/05/08 07:24:22;;;;;;;16.60;14.90;;;11.90;99.90;;;-143.14;100.00;56521.75;4948299;29;20864;-75
2022/05/08 07:26:49;;;;;;;16.27;14.67;;;12.00;99.90;;;-143.14;100.00;56521.75;4948776;29;20454;-75
2022/05/08 07:29:16;;;;;;;18.67;15.75;;;12.00;99.90;;;-143.14;100.00;56521.75;4947958;29;20932;-77
2022/05/08 07:31:43;;;;;;;16.50;14.90;;;12.20;99.90;;;-143.14;100.00;56521.75;4948301;28;20786;-73
2022/05/08 07:36:56;;;;;;;15.97;14.40;;;12.30;99.90;;;-143.14;100.00;56521.75;4948005;29;20433;-73
2022/05/08 07:39:24;;;;;;;16.67;14.97;;;12.30;99.90;;;-143.14;100.00;56521.75;4947521;29;20461;-75
2022/05/08 07:41:52;;;;;;;16.60;14.87;;;12.20;99.90;;;-143.14;100.00;56521.75;4947311;28;20488;-73
2022/05/08 07:44:19;;;;;;;17.00;15.23;;;12.30;99.90;;;-143.14;100.00;56521.75;4947420;29;20631;-77
2022/05/08 07:46:46;;;;;;;18.33;16.43;;;12.30;99.90;;;-143.14;100.00;56521.75;4947772;29;20614;-74
2022/05/08 07:49:13;;;;;;;17.90;15.87;;;12.40;99.90;;;-143.14;100.00;56521.75;4947583;29;20461;-78
2022/05/08 07:51:40;;;;;;;16.47;14.77;;;12.40;99.90;;;-143.14;100.00;56521.75;4947492;28;20488;-76
2022/05/08 07:54:07;;;;;;;17.07;15.37;;;12.50;99.90;;;-143.14;100.00;56521.75;4947311;29;20563;-75
2022/05/08 07:56:35;;;;;;;18.47;15.70;;;12.60;99.90;;;-143.14;100.00;56521.75;4947862;29;20536;-73
2022/05/08 07:59:02;;;;;;;18.13;15.80;;;12.70;99.90;;;-143.14;100.00;56521.75;4947551;28;20457;-73
2022/05/08 08:01:29;;;;;;;18.00;16.10;;;12.70;99.90;;;-143.14;100.00;56521.75;4946949;28;20761;-75
2022/05/08 08:03:56;;;;;;;17.20;15.43;;;12.80;99.90;;;-143.14;100.00;56521.75;4946780;29;20464;-73
2022/05/08 08:06:23;;;;;;;17.97;16.07;;;12.90;99.90;;;-143.14;100.00;56521.75;4947594;29;20483;-76
2022/05/08 08:08:53;;;;;;;16.17;14.57;;;13.00;99.90;;;-143.14;100.00;56521.75;4947059;29;20953;-73
2022/05/08 08:11:20;;;;;;;19.63;16.00;;;13.10;99.90;;;-143.14;100.00;56521.75;4947184;28;20473;-74
2022/05/08 08:13:49;;;;;;;20.77;17.60;;;13.20;99.90;;;-143.14;100.00;56521.75;4946538;28;20461;-74
2022/05/08 08:16:16;;;;;;;18.37;16.27;;;13.30;99.90;;;-143.14;100.00;56521.75;4950924;29;20450;-75
2022/05/08 08:18:45;;;;;;;17.63;14.93;;;13.40;99.90;;;-143.14;100.00;56521.75;4950817;29;20449;-74
2022/05/08 08:21:14;;;;;;;16.33;14.63;;;13.50;99.90;;;-143.14;100.00;56521.75;4950493;28;20575;-75
2022/05/08 08:23:43;;;;;;;17.00;15.20;;;13.60;99.90;;;-143.14;100.00;56521.75;4949986;29;20930;-74
2022/05/08 08:26:12;;;;;;;19.07;14.90;;;13.70;99.90;;;-143.14;100.00;56521.75;4950327;28;20587;-75
2022/05/08 08:28:40;;;;;;;15.17;13.53;;;13.90;99.90;;;-143.14;100.00;56521.75;4945204;29;20458;-74
2022/05/08 08:31:10;;;;;;;16.47;14.87;;;14.00;99.90;;;-143.14;100.00;56521.75;4941264;28;20476;-75
2022/05/08 08:33:42;;;;;;;15.23;13.67;;;14.30;99.90;;;-143.14;100.00;56521.75;4938377;29;20468;-74
2022/05/08 08:36:10;;;;;;;16.27;14.47;;;14.50;99.90;;;-143.14;100.00;56521.75;4948342;29;20461;-74
2022/05/08 08:38:38;;;;;;;15.93;14.40;;;14.50;99.90;;;-143.14;100.00;56521.75;4950756;29;20926;-74
2022/05/08 08:41:07;;;;;;;15.43;13.87;;;14.70;99.90;;;-143.14;100.00;56521.75;4950486;28;20564;-75
2022/05/08 08:49:10;;;;;;;17.67;12.20;;;15.00;99.90;;;-143.14;100.00;56521.75;4948819;29;20448;-75
2022/05/08 08:51:37;;;;;;;14.30;11.30;;;15.20;99.90;;;-143.14;100.00;56521.75;4958299;28;20464;-78
2022/05/08 08:54:05;;;;;;;14.33;10.53;;;15.20;99.90;;;-143.14;100.00;56521.75;4961788;28;20547;-74
2022/05/08 08:56:33;;;;;;;12.20;10.53;;;15.40;99.90;;;-143.14;100.00;56521.75;4956700;28;20450;-76
2022/05/08 08:59:00;;;;;;;14.60;11.40;;;15.50;99.90;;;-143.14;100.00;56521.75;4960591;28;20905;-77
2022/05/08 09:01:33;;;;;;;11.70;10.57;;;15.70;99.90;;;-143.14;100.00;56521.75;4956269;28;20536;-76
2022/05/08 09:04:01;;;;;;;12.30;10.93;;;15.80;99.90;;;-143.14;100.00;56521.75;4955308;28;20808;-75
2022/05/08 09:06:39;;;;;;;10.80;9.80;;;15.90;99.90;;;-143.14;100.00;56521.75;4953119;28;20497;-74
2022/05/08 09:09:24;;;;;;;12.50;10.90;;;16.00;99.90;;;-143.14;100.00;56521.75;4955841;28;20449;-78
2022/05/08 09:11:53;;;;;;;10.60;9.60;;;16.20;99.90;;;-143.14;100.00;56521.75;4955979;28;21076;-75
2022/05/08 09:14:34;;;;;;;11.83;10.60;;;16.30;99.90;;;-143.14;100.00;56521.75;4962464;28;21249;-75
2022/05/08 09:17:05;;;;;;;11.10;9.90;;;16.60;99.90;;;-143.14;100.00;56521.75;4958632;28;20470;-74
2022/05/08 09:19:38;;;;;;;12.70;11.40;;;16.70;99.90;;;-143.14;100.00;56521.75;4951986;28;20536;-77
2022/05/08 09:22:07;;;;;;;11.10;9.77;;;16.90;99.90;;;-143.14;100.00;56521.75;4952701;28;20478;-74
2022/05/08 09:24:35;;;;;;;14.63;10.37;;;17.10;99.90;;;-143.14;100.00;56521.75;4953068;28;20566;-74
2022/05/08 09:27:13;;;;;;;9.70;8.70;;;17.20;99.90;;;-143.14;100.00;56521.75;4947819;28;20450;-74
2022/05/08 09:29:41;;;;;;;11.53;8.80;;;17.40;99.90;;;-143.14;100.00;56521.75;4942441;28;20465;-74
2022/05/08 09:32:11;;;;;;;10.43;8.90;;;17.60;99.90;;;-143.14;100.00;56521.75;4939201;29;20473;-76
2022/05/08 09:34:57;;;;;;;12.67;9.80;;;17.70;99.90;;;-143.14;100.00;56521.75;4943115;29;20457;-75
2022/05/08 09:37:25;;;;;;;11.07;9.47;;;18.10;99.90;;;-143.14;100.00;56521.75;4937085;29;20457;-75
2022/05/08 09:39:52;;;;;;;11.10;9.10;;;18.30;99.90;;;-143.14;100.00;56521.75;4935878;29;20454;-74
2022/05/08 09:42:37;;;;;;;9.10;8.10;;;18.40;99.90;;;-143.14;100.00;56521.75;4939190;28;20473;-79
2022/05/08 09:45:07;;;;;;;8.00;7.20;;;18.60;99.90;;;-143.14;100.00;56521.75;4938581;29;20572;-74
2022/05/08 09:47:47;;;;;;;9.10;7.00;;;18.80;99.90;;;-143.14;100.00;56521.75;4940494;29;20451;-76
2022/05/08 09:50:19;;;;;;;7.93;6.93;;;18.90;99.90;;;-143.14;100.00;56521.75;4941313;28;20453;-73
2022/05/08 09:52:46;;;;;;;8.40;6.60;;;19.10;99.90;;;-143.14;100.00;56521.75;4938915;29;20840;-74
2022/05/08 09:55:15;;;;;;;10.10;6.50;;;19.20;99.90;;;-143.14;100.00;56521.75;4939671;29;20962;-77
2022/05/08 09:57:42;;;;;;;7.03;5.43;;;19.40;99.90;;;-143.14;100.00;56521.75;4938677;29;20445;-76
2022/05/08 10:00:12;;;;;;;9.80;4.80;;;19.60;99.90;;;-143.14;100.00;56521.75;4938241;29;20458;-78
2022/05/08 10:02:39;;;;;;;6.63;5.93;;;19.70;99.90;;;-143.14;100.00;56521.75;4938956;29;20473;-74
2022/05/08 10:05:09;;;;;;;6.10;5.50;;;19.90;99.90;;;-143.14;100.00;56521.75;4939565;29;21082;-76
2022/05/08 10:07:40;;;;;;;7.00;5.67;;;20.00;99.90;;;-143.14;100.00;56521.75;4940101;29;20544;-77
2022/05/08 10:15:43;;;;;;;6.03;5.00;;;20.50;99.90;;;-143.14;100.00;56521.75;4940555;29;21410;-74
2022/05/08 10:18:31;;;;;;;6.77;5.80;;;20.60;99.90;;;-143.14;100.00;56521.75;4942271;29;20457;-74
2022/05/08 10:21:06;;;;;;;9.67;5.00;;;20.80;99.90;;;-143.14;100.00;56521.75;4928033;29;20528;-74
2022/05/08 10:23:42;;;;;;;5.33;4.83;;;20.90;99.90;;;-143.14;100.00;56521.75;4930970;29;21395;-74
2022/05/08 10:26:21;;;;;;;7.57;6.00;;;20.90;99.90;;;-143.14;100.00;56521.75;4943904;29;20485;-74
2022/05/08 10:29:13;;;;;;;6.33;5.73;;;21.00;99.90;;;-143.14;100.00;56521.75;4941360;29;20917;-73
2022/05/08 10:31:48;;;;;;;6.53;5.90;;;21.10;99.90;;;-143.14;100.00;56521.75;4935759;29;20505;-76
2022/05/08 10:34:16;;;;;;;8.23;6.47;;;21.20;99.90;;;-143.14;100.00;56521.75;4930884;29;20454;-73
2022/05/08 10:37:28;;;;;;;7.50;6.13;;;21.20;99.90;;;-143.14;100.00;56521.75;4930845;28;20801;-73
2022/05/08 10:39:56;;;;;;;8.67;6.43;;;21.30;99.90;;;-143.14;100.00;56521.75;4940778;29;20445;-79
2022/05/08 10:42:45;;;;;;;7.97;6.37;;;21.30;99.90;;;-143.14;100.00;56521.75;4944626;28;20477;-74
2022/05/08 10:45:43;;;;;;;8.07;7.10;;;21.30;99.90;;;-143.14;100.00;56521.75;4944142;28;20528;-78
2022/05/08 10:48:15;;;;;;;6.53;5.63;;;21.30;99.90;;;-143.14;100.00;56521.75;4933474;29;20462;-75
2022/05/08 10:50:47;;;;;;;7.33;5.70;;;21.30;99.90;;;-143.14;100.00;56521.75;4947687;29;21027;-76
2022/05/08 10:53:27;;;;;;;8.23;6.03;;;21.30;99.90;;;-143.14;100.00;56521.75;4946761;29;20467;-77
2022/05/08 10:56:05;;;;;;;8.60;6.00;;;21.30;99.90;;;-143.14;100.00;56521.75;4947760;28;20438;-75
2022/05/08 10:58:33;;;;;;;5.13;4.60;;;21.40;99.90;;;-143.14;100.00;56521.75;4947764;29;20449;-76
2022/05/08 11:01:03;;;;;;;7.23;5.13;;;21.50;99.90;;;-143.14;100.00;56521.75;4946786;28;20493;-76
2022/05/08 11:03:30;;;;;;;5.33;4.47;;;21.60;99.90;;;-143.14;100.00;56521.75;4947418;29;20461;-76
2022/05/08 11:05:58;;;;;;;9.13;5.77;;;21.70;99.90;;;-143.14;100.00;56521.75;4948179;29;20670;-75
2022/05/08 11:08:32;;;;;;;6.80;5.00;;;21.70;99.90;;;-143.14;100.00;56521.75;4948812;29;20512;-80
2022/05/08 11:11:08;;;;;;;4.37;3.97;;;21.70;99.90;;;-143.14;100.00;56521.75;4948495;29;20826;-74
2022/05/08 11:13:44;;;;;;;6.07;5.47;;;21.70;99.90;;;-143.14;100.00;56521.75;4947973;28;20472;-79
2022/05/08 11:16:15;;;;;;;5.90;5.07;;;21.70;99.90;;;-143.14;100.00;56521.75;4948880;29;20449;-75
2022/05/08 11:18:43;;;;;;;6.30;4.73;;;21.70;99.90;;;-143.14;100.00;56521.75;4948930;29;20492;-79
2022/05/08 11:21:10;;;;;;;6.83;5.07;;;21.70;99.90;;;-143.14;100.00;56521.75;4948733;29;20985;-75
2022/05/08 11:23:44;;;;;;;5.10;4.20;;;21.70;99.90;;;-143.14;100.00;56521.75;4947860;29;21502;-75
2022/05/08 11:26:14;;;;;;;6.50;4.60;;;21.80;99.90;;;-143.14;100.00;56521.75;4948794;29;20504;-79
2022/05/08 11:28:49;;;;;;;9.43;5.33;;;21.70;99.90;;;-143.14;100.00;56521.75;4948890;29;20488;-80
2022/05/08 11:31:18;;;;;;;6.43;5.00;;;21.70;99.90;;;-143.14;100.00;56521.75;4947024;28;20477;-74
2022/05/08 11:36:34;;;;;;;7.10;6.00;;;21.70;99.90;;;-143.14;100.00;56521.75;4948687;29;20963;-76
2022/05/08 11:39:06;;;;;;;7.93;4.87;;;21.60;99.90;;;-143.14;100.00;56521.75;4948370;28;20464;-75
2022/05/08 11:41:36;;;;;;;8.90;4.40;;;21.60;99.90;;;-143.14;100.00;56521.75;4947933;29;20484;-76
2022/05/08 11:44:19;;;;;;;8.07;5.27;;;21.60;99.90;;;-143.14;100.00;56521.75;4948034;29;20468;-76
2022/05/08 11:46:48;;;;;;;7.00;4.47;;;21.50;99.90;;;-143.14;100.00;56521.75;4948536;29;20560;-77
2022/05/08 11:49:18;;;;;;;5.67;4.70;;;21.60;99.90;;;-143.14;100.00;56521.75;4950195;28;20466;-77
2022/05/08 11:51:47;;;;;;;5.20;4.30;;;21.60;99.90;;;-143.14;100.00;56521.75;4952169;29;20476;-80
2022/05/08 11:54:27;;;;;;;8.10;4.60;;;21.60;99.90;;;-143.14;100.00;56521.75;4951356;29;20468;-77
2022/05/08 11:57:17;;;;;;;5.00;4.30;;;21.70;99.90;;;-143.14;100.00;56521.75;4952021;29;20837;-74
2022/05/08 11:59:46;;;;;;;9.90;6.57;;;21.80;99.90;;;-143.14;100.00;56521.75;4952283;28;20476;-74
2022/05/08 12:02:14;;;;;;;5.93;5.33;;;21.80;99.90;;;-143.14;100.00;56521.75;4951330;29;21393;-74
2022/05/08 12:04:43;;;;;;;5.40;4.80;;;21.80;99.90;;;-143.14;100.00;56521.75;4952427;29;20545;-78
2022/05/08 12:07:12;;;;;;;6.63;4.70;;;21.70;99.90;;;-143.14;100.00;56521.75;4951357;28;20503;-76
2022/05/08 12:09:53;;;;;;;5.27;4.60;;;21.70;99.90;;;-143.14;100.00;56521.75;4950355;29;20907;-75
2022/05/08 12:12:29;;;;;;;5.43;4.73;;;21.80;99.90;;;-143.14;100.00;56521.75;4949323;29;21001;-76
2022/05/08 12:15:02;;;;;;;6.93;4.70;;;21.80;99.90;;;-143.14;100.00;56521.75;4950485;29;20520;-76
2022/05/08 12:17:29;;;;;;;8.83;4.50;;;21.80;99.90;;;-143.14;100.00;56521.75;4950248;29;20456;-76
2022/05/08 12:19:59;;;;;;;8.93;5.73;;;21.80;99.90;;;-143.14;100.00;56521.75;4950124;29;20520;-76
2022/05/08 12:22:28;;;;;;;6.23;5.63;;;21.80;99.90;;;-143.14;100.00;56521.75;4949620;29;20482;-76
2022/05/08 12:24:59;;;;;;;5.90;5.37;;;21.90;99.90;;;-143.14;100.00;56521.75;4950283;29;20549;-76
2022/05/08 12:27:26;;;;;;;6.93;6.00;;;22.00;99.90;;;-143.14;100.00;56521.75;4950125;29;21084;-76
2022/05/08 12:29:53;;;;;;;67.93;57.80;;;21.90;99.90;;;-143.14;100.00;56521.75;4950204;28;20854;-76
2022/05/08 12:32:21;;;;;;;253.17;205.37;;;21.90;99.90;;;-143.14;100.00;56521.75;4949004;29;20499;-76
2022/05/08 12:34:49;;;;;;;9.87;8.57;;;22.00;99.90;;;-143.14;100.00;56521.75;4950014;29;20464;-76
2022/05/08 12:37:18;;;;;;;82.33;73.33;;;22.10;99.90;;;-143.14;100.00;56521.75;4949920;29;20560;-76
2022/05/08 12:39:46;;;;;;;8.30;7.43;;;22.20;99.90;;;-143.14;100.00;56521.75;4949943;29;20560;-76
2022/05/08 12:42:14;;;;;;;6.60;5.90;;;22.30;99.90;;;-143.14;100.00;56521.75;4949065;29;20564;-76
2022/05/08 12:44:43;;;;;;;8.30;5.20;;;22.30;99.90;;;-143.14;100.00;56521.75;4949632;29;20465;-76
2022/05/08 12:47:13;;;;;;;5.17;4.27;;;22.40;99.90;;;-143.14;100.00;56521.75;4949927;29;20557;-75
2022/05/08 12:49:42;;;;;;;6.13;4.63;;;22.50;99.90;;;-143.14;100.00;56521.75;4950177;29;20464;-76
2022/05/08 12:52:11;;;;;;;9.97;8.13;;;22.50;99.90;;;-143.14;100.00;56521.75;4948864;29;20837;-76
2022/05/08 12:54:39;;;;;;;50.10;42.50;;;22.60;99.90;;;-143.14;100.00;56521.75;4949291;29;20474;-76
2022/05/08 12:57:10;;;;;;;21.53;17.70;;;22.60;99.90;;;-143.14;100.00;56521.75;4949571;29;20457;-76
2022/05/08 12:59:47;;;;;;;51.03;41.40;;;22.60;99.90;;;-143.14;100.00;56521.75;4949390;28;20536;-76
2022/05/08 13:02:15;;;;;;;5.00;4.50;;;22.70;99.90;;;-143.14;100.00;56521.75;4948489;29;20488;-76
2022/05/08 13:04:44;;;;;;;6.17;4.13;;;22.70;99.90;;;-143.14;100.00;56521.75;4949159;29;21045;-76
2022/05/08 13:07:12;;;;;;;5.77;4.67;;;22.80;99.90;;;-143.14;100.00;56521.75;4949302;28;20503;-76
2022/05/08 13:09:40;;;;;;;9.70;4.67;;;22.90;99.90;;;-143.14;100.00;56521.75;4949194;29;20461;-76
2022/05/08 13:12:09;;;;;;;4.33;3.50;;;22.80;99.90;;;-143.14;100.00;56521.75;4948455;29;20488;-76
2022/05/08 13:14:38;;;;;;;5.97;5.20;;;22.90;99.90;;;-143.14;100.00;56521.75;4949143;29;21154;-76
2022/05/08 13:17:07;;;;;;;5.40;4.10;;;22.90;99.90;;;-143.14;100.00;56521.75;4949078;29;20512;-75
2022/05/08 13:19:35;;;;;;;4.83;3.83;;;23.00;99.90;;;-143.14;100.00;56521.75;4949136;29;20544;-75
2022/05/08 13:22:04;;;;;;;5.17;3.80;;;23.00;99.90;;;-143.14;100.00;56521.75;4948259;29;20556;-76
2022/05/08 13:24:32;;;;;;;4.23;3.83;;;23.00;99.90;;;-143.14;100.00;56521.75;4948737;28;20555;-76
2022/05/08 13:27:01;;;;;;;5.20;4.20;;;23.00;99.90;;;-143.14;100.00;56521.75;4948976;29;21044;-75
2022/05/08 13:29:31;;;;;;;4.50;3.70;;;23.00;99.90;;;-143.14;100.00;56521.75;4949245;29;20476;-76
2022/05/08 13:32:00;;;;;;;4.27;3.50;;;23.00;99.90;;;-143.14;100.00;56521.75;4948204;29;20997;-75
2022/05/08 13:34:28;;;;;;;5.30;3.70;;;23.10;99.90;;;-143.14;100.00;56521.75;4944574;29;20454;-76
2022/05/08 13:36:56;;;;;;;4.30;3.70;;;23.10;99.90;;;-143.14;100.00;56521.75;4938928;29;20450;-76
2022/05/08 13:39:24;;;;;;;6.00;3.60;;;23.20;99.90;;;-143.14;100.00;56521.75;4937710;29;20454;-69
2022/05/08 13:41:53;;;;;;;5.60;4.60;;;23.20;99.90;;;-143.14;100.00;56521.75;4938224;29;20473;-69
2022/05/08 13:44:20;;;;;;;5.87;4.90;;;23.20;99.90;;;-143.14;100.00;56521.75;4938042;28;20450;-71
2022/05/08 13:46:48;;;;;;;4.10;3.70;;;23.30;99.90;;;-143.14;100.00;56521.75;4937601;29;20612;-70
2022/05/08 13:49:17;;;;;;;5.33;3.97;;;23.30;99.90;;;-143.14;100.00;56521.75;4937643;29;20458;-69
2022/05/08 13:51:44;;;;;;;4.90;3.97;;;23.30;99.90;;;-143.14;100.00;56521.75;4938289;29;20985;-69
2022/05/08 13:54:12;;;;;;;7.40;4.13;;;23.30;99.90;;;-143.14;100.00;56521.75;4938557;29;20457;-68
2022/05/08 13:56:44;;;;;;;4.03;3.63;;;23.30;99.90;;;-143.14;100.00;56521.75;4938942;29;20874;-71
2022/05/08 13:59:12;;;;;;;5.43;3.83;;;23.40;99.90;;;-143.14;100.00;56521.75;4939361;28;20454;-67
2022/05/08 14:01:40;;;;;;;8.43;4.10;;;23.40;99.90;;;-143.14;100.00;56521.75;4938491;29;20499;-68
2022/05/08 14:04:07;;;;;;;4.43;4.03;;;23.40;99.90;;;-143.14;100.00;56521.75;4938685;29;20461;-66
2022/05/08 14:06:37;;;;;;;5.30;4.40;;;23.40;99.90;;;-143.14;100.00;56521.75;4938537;29;20498;-69
2022/05/08 14:09:04;;;;;;;5.80;3.80;;;23.50;99.90;;;-143.14;100.00;56521.75;4938546;29;20459;-68
2022/05/08 14:11:31;;;;;;;3.83;3.40;;;23.40;99.90;;;-143.14;100.00;56521.75;4938182;28;20477;-69
2022/05/08 14:13:59;;;;;;;7.27;4.33;;;23.40;99.90;;;-143.14;100.00;56521.75;4936830;29;20457;-69
2022/05/08 14:16:26;;;;;;;9.70;5.53;;;23.50;99.90;;;-143.14;100.00;56521.75;4937550;29;20442;-69
2022/05/08 14:18:53;;;;;;;5.00;3.80;;;23.50;99.90;;;-143.14;100.00;56521.75;4937766;29;20458;-68
2022/05/08 14:21:20;;;;;;;12.30;6.80;;;23.40;99.90;;;-143.14;100.00;56521.75;4937598;29;20529;-69
2022/05/08 14:23:48;;;;;;;214.63;101.80;;;23.40;99.90;;;-143.14;100.00;56521.75;4936872;29;20532;-76
2022/05/08 14:26:15;;;;;;;5.90;5.20;;;23.40;99.90;;;-143.14;100.00;56521.75;4937441;28;21048;-75